createdAt,value
2023-02-11T00:06:27.886Z,8.32
2023-02-11T00:16:31.913Z,7.25
2023-02-11T00:26:37.366Z,5.55
2023-02-11T00:36:40.147Z,6.20
2023-02-11T00:46:44.570Z,7.28
2023-02-11T00:56:47.388Z,6.90
2023-02-11T01:06:51.837Z,5.80
2023-02-11T01:16:54.538Z,6.40
2023-02-11T01:26:58.671Z,4.80
2023-02-11T01:37:01.522Z,4.28
2023-02-11T01:47:06.747Z,5.90
2023-02-11T01:57:25.414Z,6.22
2023-02-11T02:07:37.591Z,5.15
2023-02-11T02:17:48.088Z,4.95
2023-02-11T02:28:01.699Z,4.95
2023-02-11T02:38:10.130Z,4.47
2023-02-11T02:48:26.109Z,6.10
2023-02-11T02:58:55.183Z,5.82
2023-02-11T03:09:01.948Z,6.05
2023-02-11T03:19:10.874Z,4.82
2023-02-11T03:29:19.606Z,7.22
2023-02-11T03:39:28.241Z,5.85
2023-02-11T03:49:33.504Z,7.68
2023-02-11T03:59:55.842Z,7.20
2023-02-11T04:09:58.592Z,5.95
2023-02-11T04:20:02.806Z,7.72
2023-02-11T04:30:06.935Z,6.78
2023-02-11T04:40:12.118Z,6.97
2023-02-11T04:50:14.918Z,8.38
2023-02-11T05:00:25.568Z,7.73
2023-02-11T05:10:28.653Z,8.80
2023-02-11T05:20:32.578Z,9.02
2023-02-11T05:30:35.421Z,9.73
2023-02-11T05:40:39.445Z,8.50
2023-02-11T05:50:42.517Z,9.45
2023-02-11T06:00:46.526Z,10.88
2023-02-11T06:10:49.137Z,9.15
2023-02-11T06:20:53.357Z,10.00
2023-02-11T06:30:56.017Z,10.68
2023-02-11T06:41:00.275Z,10.27
2023-02-11T06:51:04.633Z,10.15
2023-02-11T07:01:10.161Z,8.82
2023-02-11T07:11:14.517Z,9.20
2023-02-11T07:21:20.613Z,9.30
2023-02-11T07:31:24.727Z,8.48
2023-02-11T07:41:29.130Z,9.23
2023-02-11T07:51:32.314Z,9.95
2023-02-11T08:01:36.278Z,9.20
2023-02-11T08:11:38.869Z,7.72
2023-02-11T08:21:43.045Z,8.93
2023-02-11T08:31:48.269Z,8.20
2023-02-11T08:41:54.304Z,8.85
2023-02-11T08:51:59.396Z,9.50
2023-02-11T09:02:03.328Z,6.13
2023-02-11T09:12:06.622Z,8.40
2023-02-11T09:22:10.574Z,8.50
2023-02-11T09:32:13.464Z,7.57
2023-02-11T09:42:39.875Z,7.43
2023-02-11T09:52:49.641Z,7.53
2023-02-11T10:03:04.697Z,7.47
2023-02-11T10:13:36.852Z,7.25
2023-02-11T10:23:45.314Z,8.75
2023-02-11T10:33:52.331Z,7.85
2023-02-11T10:43:58.176Z,8.20
2023-02-11T10:54:21.379Z,7.93
2023-02-11T11:04:41.905Z,7.13
2023-02-11T11:25:01.446Z,6.00
2023-02-11T11:35:21.607Z,5.68
2023-02-11T11:45:27.271Z,6.65
2023-02-11T11:55:35.768Z,7.28
2023-02-11T12:05:47.832Z,6.32
2023-02-11T12:15:59.646Z,7.30
2023-02-11T12:26:14.260Z,6.75
2023-02-11T12:36:33.447Z,8.13
2023-02-11T12:46:44.049Z,6.00
2023-02-11T12:56:52.508Z,6.25
2023-02-11T13:07:02.203Z,6.00
2023-02-11T13:17:12.148Z,4.50
2023-02-11T13:27:37.808Z,5.17
2023-02-11T13:37:40.781Z,4.13
2023-02-11T13:47:45.145Z,4.03
2023-02-11T13:58:18.284Z,3.08
2023-02-11T14:08:42.179Z,3.03
2023-02-11T14:19:02.952Z,3.45
2023-02-11T14:29:17.454Z,3.30
2023-02-11T14:39:35.536Z,2.22
2023-02-11T14:49:40.693Z,2.50
2023-02-11T14:59:58.850Z,3.42
2023-02-11T15:10:03.081Z,3.08
2023-02-11T15:20:20.818Z,3.20
2023-02-11T15:30:33.941Z,3.83
2023-02-11T15:40:38.335Z,2.60
2023-02-11T15:50:44.017Z,3.08
2023-02-11T16:00:49.160Z,3.22
2023-02-11T16:10:58.675Z,3.10
2023-02-11T16:21:02.693Z,2.58
2023-02-11T16:31:07.132Z,2.30
2023-02-11T16:41:11.727Z,2.85
2023-02-11T16:51:15.688Z,2.92
2023-02-11T17:01:18.385Z,3.58
2023-02-11T17:11:22.377Z,4.07
2023-02-11T17:21:29.516Z,3.30
2023-02-11T17:31:34.103Z,3.28
2023-02-11T17:41:39.582Z,3.70
2023-02-11T17:51:43.523Z,3.78
2023-02-11T18:01:46.397Z,3.95
2023-02-11T18:11:52.393Z,2.97
2023-02-11T18:21:55.037Z,3.47
2023-02-11T18:31:59.585Z,3.50
2023-02-11T18:42:02.220Z,3.22
2023-02-11T18:52:06.505Z,3.72
2023-02-11T19:02:10.455Z,3.63
2023-02-11T19:12:14.605Z,3.00
2023-02-11T19:22:18.855Z,3.10
2023-02-11T19:32:22.814Z,3.72
2023-02-11T19:42:27.581Z,2.65
2023-02-11T19:52:31.956Z,3.53
2023-02-11T20:02:34.620Z,4.25
2023-02-11T20:12:38.867Z,2.85
2023-02-11T20:22:41.474Z,4.05
2023-02-11T20:32:45.425Z,4.10
2023-02-11T20:42:48.223Z,3.35
2023-02-11T20:52:52.223Z,3.22
2023-02-11T21:02:54.940Z,3.58
2023-02-11T21:13:00.547Z,4.35
2023-02-11T21:23:03.283Z,4.68
2023-02-11T21:33:07.385Z,5.45
2023-02-11T21:43:10.022Z,5.63
2023-02-11T21:53:14.654Z,6.35
2023-02-11T22:03:17.276Z,6.60
2023-02-11T22:13:21.246Z,6.43
2023-02-11T22:23:23.917Z,6.78
2023-02-11T22:33:29.066Z,8.50
2023-02-11T22:43:31.941Z,7.85
2023-02-11T22:53:36.092Z,6.80
2023-02-11T23:03:38.733Z,7.13
2023-02-11T23:13:44.262Z,6.18
2023-02-11T23:23:46.963Z,6.80
2023-02-11T23:33:51.611Z,7.28
2023-02-11T23:43:56.388Z,8.45
2023-02-11T23:54:00.333Z,7.65
